M I D A S
Marine Information and Data Acquisition System
Tripno 2167 of the Zeeleeuw from 2011-08-19 07:27:30 to 2011-08-19 15:53:17
Back to CruiseResearch ActivitiesStationsMapUnderway DataData graphs

EquipmentUnitsComment
TimeDGPSUTC
LatitudeDGPSDM.mWGS84
LongitudeDGPSDM.mWGS84
HeadingGyrodeg 
SOGDGPSknotsSpeed over ground
COGDGPSdegCourse over ground
DepthEcho soundermeters200 kHz
Missing or incorrect values are displayed as -999
Navigation data collected by the RV Zeeleeuw from 2011-08-19 07:08:29 to 2011-08-19 15:54:02
Time Latitude Longitude Heading SOG COG Depth
2011-08-19 07:09:32 51°13.636 2°56.019 127.1 0.1 73 7.7
2011-08-19 07:10:31 51°13.634 2°56.018 112.7 0.1 232 5.8
2011-08-19 07:11:34 51°13.647 2°55.974 117.8 3.4 297 -999
2011-08-19 07:12:35 51°13.679 2°55.868 115.5 4.7 295 -999
2011-08-19 07:13:35 51°13.701 2°55.761 103.2 3.4 283 -999
2011-08-19 07:14:34 51°13.707 2°55.721 91.9 0.5 69 13.4
2011-08-19 07:15:34 51°13.719 2°55.746 47.5 2.9 35 12.2
2011-08-19 07:16:35 51°13.729 2°55.757 11.7 1.6 190 -999
2011-08-19 07:17:35 51°13.717 2°55.746 343.8 2.6 337 -999
2011-08-19 07:18:34 51°13.803 2°55.668 332.8 7.8 331 11.3
2011-08-19 07:19:34 51°13.934 2°55.568 335.4 9.2 335 11.8
2011-08-19 07:20:33 51°14.069 2°55.466 336.4 9.3 336 -999
2011-08-19 07:21:35 51°14.215 2°55.344 332.6 9.9 331 -999
2011-08-19 07:22:35 51°14.358 2°55.206 327.7 10.1 326 10.6
2011-08-19 07:23:34 51°14.5 2°55.059 329.3 10.6 327 11.6
2011-08-19 07:24:32 51°14.652 2°54.908 345.3 11.8 340 12
2011-08-19 07:25:32 51°14.846 2°54.895 14.6 11.7 12 10.1
2011-08-19 07:26:32 51°15.028 2°54.992 31.8 11.6 28 9.2
2011-08-19 07:27:32 51°15.202 2°55.126 24.5 11.7 21 8.6
2011-08-19 07:28:32 51°15.37 2°55.272 40 11.5 40 8.2
2011-08-19 07:29:32 51°15.492 2°55.506 50.8 11.4 49 8.2
2011-08-19 07:30:32 51°15.611 2°55.745 55.6 11.4 54 8.3
2011-08-19 07:31:32 51°15.724 2°55.99 54.4 11.4 54 8.6
2011-08-19 07:32:32 51°15.845 2°56.223 51.6 11.4 50 8.5
2011-08-19 07:33:32 51°15.97 2°56.448 52.7 11.4 53 9.1
2011-08-19 07:34:32 51°16.072 2°56.701 54.8 11.2 54 8.6
2011-08-19 07:35:32 51°16.165 2°56.959 61.8 11.2 59 9.1
2011-08-19 07:36:32 51°16.265 2°57.21 58.8 11.2 60 8.7
2011-08-19 07:37:32 51°16.356 2°57.466 58.8 11.1 55 8.9
2011-08-19 07:38:32 51°16.454 2°57.716 61 11.1 59 9
2011-08-19 07:39:32 51°16.549 2°57.97 56.7 11.1 54 9.6
2011-08-19 07:40:32 51°16.659 2°58.208 55.4 11.2 55 9.4
2011-08-19 07:41:32 51°16.753 2°58.464 58.2 11.2 55 9.7
2011-08-19 07:42:32 51°16.866 2°58.701 53.8 11.3 56 9.4
2011-08-19 07:43:32 51°16.97 2°58.948 54.1 11.3 52 9.4
2011-08-19 07:44:32 51°17.076 2°59.194 54.2 11.2 52 9.6
2011-08-19 07:45:32 51°17.177 2°59.447 60.6 11.2 58 9.5
2011-08-19 07:46:32 51°17.284 2°59.691 53.1 11.2 53 8.8
2011-08-19 07:47:32 51°17.393 2°59.932 56.2 11.2 54 9.2
2011-08-19 07:48:32 51°17.489 3°0.187 62.5 11.2 63 9.2
2011-08-19 07:49:32 51°17.58 3°0.447 60.8 11.2 60 9.3
2011-08-19 07:50:32 51°17.677 3°0.7 56.5 11.2 52 9.3
2011-08-19 07:51:32 51°17.794 3°0.931 53.1 11.1 51 8.9
2011-08-19 07:52:32 51°17.895 3°1.179 62 11.1 61 9.2
2011-08-19 07:53:32 51°17.998 3°1.423 53.8 11.1 53 9.3
2011-08-19 07:54:32 51°18.098 3°1.672 61 11.2 59 9.2
2011-08-19 07:55:32 51°18.204 3°1.914 54 11.1 49 9.1
2011-08-19 07:56:32 51°18.315 3°2.151 55.9 11.1 54 8.6
2011-08-19 07:57:32 51°18.421 3°2.392 60.3 11.1 63 8.7
2011-08-19 07:58:32 51°18.493 3°2.663 66.5 11.1 66 8.5
2011-08-19 07:59:32 51°18.575 3°2.925 60.1 11 59 8.6
2011-08-19 08:00:32 51°18.666 3°3.177 60.3 10.9 58 8.7
2011-08-19 08:01:32 51°18.762 3°3.426 59.8 11 59 8.5
2011-08-19 08:02:32 51°18.841 3°3.689 63.7 11 61 8.2
2011-08-19 08:03:32 51°18.938 3°3.936 57.3 10.9 55 8.5
2011-08-19 08:04:32 51°19.061 3°4.145 47.2 10.8 44 8
2011-08-19 08:05:32 51°19.179 3°4.365 54.2 10.8 49 8
2011-08-19 08:06:32 51°19.314 3°4.56 44.4 10.9 40 7.7
2011-08-19 08:07:32 51°19.448 3°4.752 46 10.8 42 7.2
2011-08-19 08:08:32 51°19.58 3°4.948 47.1 10.8 45 7.5
2011-08-19 08:09:33 51°19.695 3°5.173 53.2 10.8 51 7.6
2011-08-19 08:10:32 51°19.811 3°5.387 54.5 10.9 53 7.7
2011-08-19 08:11:32 51°19.898 3°5.638 61.3 10.8 61 7.5
2011-08-19 08:12:32 51°20.003 3°5.871 57.5 10.9 55 7.6
2011-08-19 08:13:32 51°20.099 3°6.114 58.6 10.8 56 7.7
2011-08-19 08:14:32 51°20.211 3°6.339 54 10.8 52 7.5
2011-08-19 08:15:32 51°20.323 3°6.564 55.2 10.7 52 7.4
2011-08-19 08:16:32 51°20.425 3°6.799 57.1 10.7 56 7.6
2011-08-19 08:17:32 51°20.533 3°7.024 56.3 10.7 52 7.4
2011-08-19 08:18:32 51°20.637 3°7.254 56.4 10.7 54 7.1
2011-08-19 08:19:32 51°20.741 3°7.484 53.9 10.8 51 7.5
2011-08-19 08:20:32 51°20.885 3°7.658 34.9 10.9 28 7.6
2011-08-19 08:21:32 51°21.055 3°7.758 21.6 11 13 7.4
2011-08-19 08:22:32 51°21.235 3°7.825 21.2 11.1 13 8.2
2011-08-19 08:23:32 51°21.395 3°7.886 26.1 7.6 13 8.9
2011-08-19 08:24:32 51°21.474 3°7.817 320.7 5.5 293 9.3
2011-08-19 08:25:32 51°21.474 3°7.69 268.6 4.3 258 9.5
2011-08-19 08:26:32 51°21.453 3°7.591 254.8 3.7 248 9.5
2011-08-19 08:27:32 51°21.432 3°7.493 264.8 4.1 255 9.4
2011-08-19 08:28:32 51°21.428 3°7.375 296.4 4.5 279 9.5
2011-08-19 08:29:32 51°21.456 3°7.281 347 3.5 316 9.5
2011-08-19 08:30:32 51°21.501 3°7.257 28.4 2.7 359 9.8
2011-08-19 08:31:32 51°21.55 3°7.264 27.7 3 4 9.9
2011-08-19 08:32:33 51°21.601 3°7.264 23.5 3.2 359 10.5
2011-08-19 08:33:32 51°21.654 3°7.261 26.9 3.1 4 10.8
2011-08-19 08:34:32 51°21.697 3°7.287 47.5 2.9 35 11.2
2011-08-19 08:35:32 51°21.726 3°7.35 70.5 3.1 71 10.8
2011-08-19 08:36:32 51°21.745 3°7.426 63.6 3 61 10.9
2011-08-19 08:37:32 51°21.77 3°7.495 63.6 3 62 10.7
2011-08-19 08:38:32 51°21.788 3°7.569 68.7 2.9 71 10.7
2011-08-19 08:39:32 51°21.807 3°7.645 65.4 3.1 68 10.9
2011-08-19 08:40:32 51°21.828 3°7.719 62.7 3.1 62 10.7
2011-08-19 08:41:32 51°21.851 3°7.794 65.6 3.2 68 10.8
2011-08-19 08:42:32 51°21.866 3°7.876 64.8 3 65 10.5
2011-08-19 08:43:32 51°21.896 3°7.94 48.5 3 39 11
2011-08-19 08:44:32 51°21.94 3°7.987 41.5 3.3 36 11.1
2011-08-19 08:45:32 51°21.977 3°8.049 52.6 3.2 49 11.3
2011-08-19 08:46:32 51°22.01 3°8.115 55.1 3.1 55 11.5
2011-08-19 08:47:32 51°22.036 3°8.187 61.1 3.2 64 11.3
2011-08-19 08:48:32 51°22.057 3°8.266 63.6 3.2 66 11.4
2011-08-19 08:49:32 51°22.08 3°8.345 63 3.3 65 11.5
2011-08-19 08:50:32 51°22.107 3°8.418 58.9 3.1 56 11.6
2011-08-19 08:51:32 51°22.14 3°8.483 55.2 3.3 49 11.8
2011-08-19 08:52:32 51°22.172 3°8.55 59.8 3.1 55 11.7
2011-08-19 08:53:32 51°22.204 3°8.619 59.6 3.3 50 11.8
2011-08-19 08:54:32 51°22.235 3°8.689 62.4 3.1 57 12.3
2011-08-19 08:55:32 51°22.262 3°8.758 64.3 3.1 59 12.2
2011-08-19 08:56:32 51°22.292 3°8.823 59.1 3 51 12.2
2011-08-19 08:57:32 51°22.326 3°8.883 56 3.2 45 12.4
2011-08-19 08:58:32 51°22.362 3°8.944 61 3 51 12.2
2011-08-19 08:59:32 51°22.391 3°9.015 67.3 3.2 60 12.3
2011-08-19 09:00:32 51°22.417 3°9.088 66.4 3.2 61 12.3
2011-08-19 09:01:32 51°22.443 3°9.16 65.4 3.2 57 12.4
2011-08-19 09:02:32 51°22.471 3°9.233 64.7 3.2 59 12.8
2011-08-19 09:03:32 51°22.495 3°9.309 71.9 3.2 74 13
2011-08-19 09:04:32 51°22.488 3°9.394 102.3 3.6 119 12.7
2011-08-19 09:05:32 51°22.437 3°9.456 137.7 4.3 161 12.8
2011-08-19 09:06:32 51°22.358 3°9.457 173.3 5.2 194 12.8
2011-08-19 09:07:32 51°22.28 3°9.394 200.3 4.9 218 12.4
2011-08-19 09:08:32 51°22.233 3°9.322 212.7 3.4 230 12.5
2011-08-19 09:09:32 51°22.203 3°9.257 220 3 236 12.1
2011-08-19 09:10:32 51°22.177 3°9.2 222.5 2.6 237 12.2
2011-08-19 09:11:32 51°22.155 3°9.147 224.3 2.3 236 12.2
2011-08-19 09:12:32 51°22.135 3°9.097 226.3 2.2 236 12.2
2011-08-19 09:13:32 51°22.11 3°9.041 227 3.4 233 11.8
2011-08-19 09:14:32 51°22.065 3°8.957 217.2 4.7 226 11.7
2011-08-19 09:15:32 51°22.001 3°8.871 207 5.3 219 11.4
2011-08-19 09:16:32 51°21.93 3°8.778 209.8 5.6 220 11.1
2011-08-19 09:17:32 51°21.858 3°8.683 212 5.6 219 10.6
2011-08-19 09:18:32 51°21.785 3°8.588 211.3 5.7 219 10.7
2011-08-19 09:19:32 51°21.71 3°8.491 212 5.8 220 10
2011-08-19 09:20:32 51°21.633 3°8.397 208.4 5.8 216 9.6
2011-08-19 09:21:32 51°21.556 3°8.309 207.7 5.6 216 9.4
2011-08-19 09:22:32 51°21.482 3°8.224 208.9 5.4 217 9.1
2011-08-19 09:23:32 51°21.41 3°8.139 210.4 5.4 218 8.6
2011-08-19 09:24:32 51°21.339 3°8.053 212.5 5.4 219 8.3
2011-08-19 09:25:32 51°21.267 3°7.969 210.9 5.3 214 8
2011-08-19 09:26:33 51°21.195 3°7.884 212.9 5.1 213 7.8
2011-08-19 09:27:32 51°21.128 3°7.855 162.6 3.6 176 7.4
2011-08-19 09:28:32 51°21.086 3°7.893 104.7 2.6 122 7.6
2011-08-19 09:29:32 51°21.093 3°7.949 50.5 2.7 44 7.9
2011-08-19 09:30:32 51°21.143 3°7.998 34.5 4.4 29 7.6
2011-08-19 09:31:32 51°21.21 3°8.06 36.8 4.6 31 7.6
2011-08-19 09:32:32 51°21.271 3°8.12 37.9 4.1 32 7.8
2011-08-19 09:33:33 51°21.327 3°8.178 39.3 3.8 34 8.2
2011-08-19 09:34:32 51°21.381 3°8.229 37.2 3.9 29 8.4
2011-08-19 09:35:32 51°21.436 3°8.278 37.8 3.7 30 8.8
2011-08-19 09:36:32 51°21.49 3°8.325 37.9 3.8 28 9.1
2011-08-19 09:37:32 51°21.545 3°8.375 39.2 3.8 30 9.1
2011-08-19 09:38:32 51°21.598 3°8.425 40.5 3.7 31 9.8
2011-08-19 09:39:32 51°21.649 3°8.474 39.6 3.4 29 9.8
2011-08-19 09:40:32 51°21.704 3°8.513 36.1 3.6 24 10.1
2011-08-19 09:41:32 51°21.76 3°8.552 36.1 3.7 24 10.4
2011-08-19 09:42:32 51°21.815 3°8.594 38.5 3.7 26 10.5
2011-08-19 09:43:32 51°21.869 3°8.641 40.7 3.8 29 11
2011-08-19 09:44:32 51°21.922 3°8.69 40.6 3.7 30 11.1
2011-08-19 09:45:32 51°21.978 3°8.735 37.5 3.8 24 11.4
2011-08-19 09:46:32 51°22.033 3°8.776 46.8 3.3 41 11
2011-08-19 09:47:32 51°22.042 3°8.855 94.6 3.4 111 11.7
2011-08-19 09:48:32 51°21.989 3°8.918 141.5 5 165 11.3
2011-08-19 09:49:32 51°21.866 3°8.856 212.8 9.8 222 11.3
2011-08-19 09:50:32 51°21.832 3°8.608 289.7 9.8 287 10.8
2011-08-19 09:51:32 51°21.945 3°8.471 350.9 8.8 338 10.9
2011-08-19 09:52:32 51°22.086 3°8.367 345.4 9.4 335 11.5
2011-08-19 09:53:32 51°22.231 3°8.268 346.4 9.8 337 11.8
2011-08-19 09:54:32 51°22.385 3°8.172 348.9 9.9 341 12.1
2011-08-19 09:55:32 51°22.541 3°8.086 348.4 10 339 12
2011-08-19 09:56:32 51°22.696 3°7.99 346.3 10 338 12.2
2011-08-19 09:57:32 51°22.847 3°7.869 339.2 10.3 330 12
2011-08-19 09:58:33 51°22.996 3°7.731 340 10.1 333 11.6
2011-08-19 09:59:32 51°23.137 3°7.627 344.8 7.7 333 11.4
2011-08-19 10:00:33 51°23.19 3°7.506 298.7 4.9 285 11.3
2011-08-19 10:01:33 51°23.196 3°7.38 280.5 4.7 270 11.7
2011-08-19 10:02:32 51°23.197 3°7.263 286.3 4.2 272 11.5
2011-08-19 10:03:32 51°23.199 3°7.158 289.2 3.7 274 11.4
2011-08-19 10:04:32 51°23.202 3°7.06 288.8 3.8 270 11.6
2011-08-19 10:05:32 51°23.202 3°6.963 287.2 3.5 267 11.3
2011-08-19 10:06:32 51°23.2 3°6.869 283.4 3.6 268 11.6
2011-08-19 10:07:33 51°23.201 3°6.774 291.5 3.5 272 11.5
2011-08-19 10:08:33 51°23.204 3°6.68 295.5 3.4 276 11.5
2011-08-19 10:09:32 51°23.212 3°6.589 302.5 3.5 281 11.7
2011-08-19 10:10:32 51°23.226 3°6.501 313.2 3.3 289 11.7
2011-08-19 10:11:32 51°23.249 3°6.429 341.2 2.6 308 12
2011-08-19 10:12:32 51°23.278 3°6.396 17.6 1.8 339 11.8
2011-08-19 10:13:32 51°23.297 3°6.402 55.4 1 55 12
2011-08-19 10:14:32 51°23.295 3°6.434 86.8 1.6 115 12.2
2011-08-19 10:15:32 51°23.284 3°6.482 84.2 2.4 97 11.9
2011-08-19 10:16:33 51°23.295 3°6.551 61.1 3 62 12
2011-08-19 10:17:33 51°23.321 3°6.634 65.6 3.8 69 11.8
2011-08-19 10:18:32 51°23.32 3°6.74 93.1 4.3 103 11.8
2011-08-19 10:19:32 51°23.308 3°6.856 87.2 4.4 96 11.9
2011-08-19 10:20:32 51°23.301 3°6.976 88.1 4.6 96 11.9
2011-08-19 10:21:32 51°23.291 3°7.097 87 4.5 96 12.1
2011-08-19 10:22:32 51°23.286 3°7.215 83.8 4.5 93 12.1
2011-08-19 10:23:32 51°23.284 3°7.332 83.8 4.4 92 12.2
2011-08-19 10:24:32 51°23.282 3°7.45 84.5 4.4 91 11.9
2011-08-19 10:25:32 51°23.278 3°7.57 87.3 4.6 95 12
2011-08-19 10:26:32 51°23.272 3°7.691 87.2 4.6 94 11.8
2011-08-19 10:27:32 51°23.267 3°7.811 85.2 4.5 93 12
2011-08-19 10:28:32 51°23.267 3°7.927 82.9 4.3 90 11.9
2011-08-19 10:29:32 51°23.265 3°8.043 83.4 4.3 90 11.9
2011-08-19 10:30:32 51°23.263 3°8.157 86.2 4.3 95 11.7
2011-08-19 10:31:32 51°23.258 3°8.269 81.7 3.6 82 11.6
2011-08-19 10:32:32 51°23.294 3°8.298 7.5 2.9 342 12
2011-08-19 10:33:32 51°23.325 3°8.221 299.7 4.3 282 12.4
2011-08-19 10:34:32 51°23.318 3°8.085 268.3 5.8 260 12.3
2011-08-19 10:35:32 51°23.302 3°7.93 273.1 5.9 263 11.9
2011-08-19 10:36:33 51°23.293 3°7.771 275.9 5.6 264 12.2
2011-08-19 10:37:32 51°23.285 3°7.63 275.6 5.3 264 12.5
2011-08-19 10:38:32 51°23.275 3°7.492 273.9 5.1 262 12.3
2011-08-19 10:39:32 51°23.263 3°7.357 272.9 5.2 261 12.3
2011-08-19 10:40:33 51°23.25 3°7.219 274.3 5.2 263 12
2011-08-19 10:41:32 51°23.242 3°7.085 277.3 5.2 264 12.1
2011-08-19 10:42:32 51°23.235 3°6.947 279.4 5.2 265 12.2
2011-08-19 10:43:32 51°23.228 3°6.809 279.6 5.2 266 11.7
2011-08-19 10:44:33 51°23.22 3°6.667 277.9 5.3 264 12.2
2011-08-19 10:45:32 51°23.209 3°6.531 275.2 5.3 262 12
2011-08-19 10:46:32 51°23.178 3°6.412 231.6 4.5 228 11.9
2011-08-19 10:47:32 51°23.114 3°6.372 156.6 4 175 11.7
2011-08-19 10:48:32 51°23.082 3°6.423 78.2 2.6 91 11.7
2011-08-19 10:49:32 51°23.094 3°6.526 74.7 4.8 80 11.6
2011-08-19 10:50:32 51°23.105 3°6.664 78.9 5.4 83 11.4
2011-08-19 10:51:32 51°23.116 3°6.811 77.5 5.6 82 11.5
2011-08-19 10:52:33 51°23.13 3°6.955 76.1 5.1 79 11.5
2011-08-19 10:53:32 51°23.142 3°7.085 76 5 81 11.8
2011-08-19 10:54:32 51°23.154 3°7.213 76.7 4.9 83 11.6
2011-08-19 10:55:32 51°23.16 3°7.342 80 4.9 86 11.3
2011-08-19 10:56:32 51°23.168 3°7.471 77.2 4.9 83 11.4
2011-08-19 10:57:32 51°23.181 3°7.599 74 4.9 78 11.8
2011-08-19 10:58:32 51°23.199 3°7.727 73.9 4.9 78 11.7
2011-08-19 10:59:32 51°23.217 3°7.856 74.1 4.9 78 12
2011-08-19 11:00:32 51°23.23 3°7.987 79.4 5.1 85 11.8
2011-08-19 11:01:32 51°23.237 3°8.121 79.2 5.1 84 11.7
2011-08-19 11:02:32 51°23.246 3°8.253 76.6 5 83 12.1
2011-08-19 11:03:32 51°23.208 3°8.346 142.2 4.3 162 11.9
2011-08-19 11:04:32 51°23.137 3°8.322 204.3 4.6 211 11.9
2011-08-19 11:05:32 51°23.082 3°8.228 243.3 4.9 241 12
2011-08-19 11:06:32 51°23.066 3°8.106 283 4.7 270 12.1
2011-08-19 11:07:32 51°23.075 3°7.977 292.1 5 279 11.7
2011-08-19 11:08:33 51°23.083 3°7.841 285.4 5 272 11.9
2011-08-19 11:09:32 51°23.084 3°7.707 285.3 5.1 273 11.7
2011-08-19 11:10:33 51°23.09 3°7.566 287.6 5.2 275 11.6
2011-08-19 11:11:32 51°23.097 3°7.427 288.7 5.4 275 11.3
2011-08-19 11:12:32 51°23.104 3°7.286 289.9 5.3 276 11.7
2011-08-19 11:13:32 51°23.114 3°7.145 290.2 5.4 275 11.7
2011-08-19 11:14:32 51°23.12 3°7 286.8 5.4 274 11.8
2011-08-19 11:15:32 51°23.125 3°6.858 286.8 5.3 274 11.5
2011-08-19 11:16:32 51°23.133 3°6.717 290.4 5.2 276 11.8
2011-08-19 11:17:33 51°23.142 3°6.575 290.1 5.3 276 11.8
2011-08-19 11:18:32 51°23.152 3°6.434 289.6 5.4 279 12.1
2011-08-19 11:19:32 51°23.186 3°6.348 352.1 2.8 334 11.7
2011-08-19 11:20:32 51°23.21 3°6.371 70 2.2 87 12.1
2011-08-19 11:21:32 51°23.193 3°6.451 95.3 3.8 110 12.4
2011-08-19 11:22:32 51°23.178 3°6.558 90.1 4.3 101 11.9
2011-08-19 11:23:33 51°23.163 3°6.676 91.6 4.5 104 12.1
2011-08-19 11:24:32 51°23.134 3°6.789 107.9 4.9 125 11.8
2011-08-19 11:25:32 51°23.059 3°6.819 182.5 5.1 198 11.6
2011-08-19 11:26:32 51°23.002 3°6.723 252.7 5.2 247 11.6
2011-08-19 11:27:32 51°22.987 3°6.579 281 5.6 272 11.5
2011-08-19 11:28:32 51°23.025 3°6.444 329.1 6.3 321 11.9
2011-08-19 11:29:32 51°23.158 3°6.348 345.8 11.2 337 11.8
2011-08-19 11:30:32 51°23.341 3°6.229 344.4 12.1 337 12.2
2011-08-19 11:31:32 51°23.528 3°6.11 345.9 12.1 340 13.1
2011-08-19 11:32:33 51°23.724 3°6.016 350.4 12.1 345 14.2
2011-08-19 11:33:33 51°23.918 3°5.93 349.2 12.2 344 19.4
2011-08-19 11:34:32 51°24.105 3°5.825 345.8 12.1 342 20
2011-08-19 11:35:32 51°24.297 3°5.732 346 12 341 15.6
2011-08-19 11:36:32 51°24.483 3°5.62 345.3 11.9 340 12.6
2011-08-19 11:37:32 51°24.67 3°5.532 348.8 11.7 343 12.8
2011-08-19 11:38:32 51°24.857 3°5.445 349.8 11.6 344 12.5
2011-08-19 11:39:32 51°25.039 3°5.34 346.2 11.7 341 12.4
2011-08-19 11:40:32 51°25.222 3°5.248 346.3 11.5 340 12.1
2011-08-19 11:41:32 51°25.4 3°5.139 345.2 11.5 340 11.5
2011-08-19 11:42:33 51°25.554 3°4.95 321.5 11.8 315 11.5
2011-08-19 11:43:32 51°25.701 3°4.753 332.5 11.6 329 11.2
2011-08-19 11:44:32 51°25.877 3°4.643 347.6 11.3 343 11.5
2011-08-19 11:45:32 51°26.054 3°4.546 347.7 11.2 342 11.6
2011-08-19 11:46:32 51°26.232 3°4.449 344.3 11.4 336 11.4
2011-08-19 11:47:32 51°26.405 3°4.331 344.1 11.4 338 11.6
2011-08-19 11:48:32 51°26.583 3°4.226 345.6 11.4 341 11.8
2011-08-19 11:49:33 51°26.765 3°4.127 347.9 11.3 342 10.8
2011-08-19 11:50:32 51°26.942 3°4.03 343.2 11.6 337 11.7
2011-08-19 11:51:32 51°27.122 3°3.917 347.7 11.5 343 13.2
2011-08-19 11:52:32 51°27.302 3°3.81 343 11.7 336 14.4
2011-08-19 11:53:33 51°27.475 3°3.684 342.5 9.2 334 16
2011-08-19 11:54:32 51°27.562 3°3.6 347 4.3 336 16.6
2011-08-19 11:55:33 51°27.597 3°3.626 58.6 2.2 79 16.3
2011-08-19 11:56:32 51°27.595 3°3.695 69.6 2.8 86 16.3
2011-08-19 11:57:32 51°27.609 3°3.771 58.3 3.5 68 16.3
2011-08-19 11:58:32 51°27.632 3°3.873 61.2 4.4 70 16.7
2011-08-19 11:59:32 51°27.657 3°3.987 62.8 4.7 72 16.3
2011-08-19 12:00:33 51°27.681 3°4.11 65.6 4.8 75 16.1
2011-08-19 12:01:32 51°27.706 3°4.23 62.5 4.8 70 15.7
2011-08-19 12:02:32 51°27.735 3°4.348 60.2 4.7 68 15.5
2011-08-19 12:03:32 51°27.765 3°4.467 60.5 4.9 67 15.3
2011-08-19 12:04:32 51°27.795 3°4.587 60.6 4.8 68 14.9
2011-08-19 12:05:32 51°27.823 3°4.71 65.2 4.9 72 13.8
2011-08-19 12:06:32 51°27.845 3°4.833 64.9 4.7 74 14.5
2011-08-19 12:07:32 51°27.872 3°4.955 62.2 4.9 70 14
2011-08-19 12:08:32 51°27.902 3°5.075 59.6 4.9 67 14.5
2011-08-19 12:09:32 51°27.932 3°5.194 62.7 4.9 70 14.8
2011-08-19 12:10:32 51°27.954 3°5.32 67.9 4.9 75 14.8
2011-08-19 12:11:32 51°27.977 3°5.437 50.5 3.6 50 15.2
2011-08-19 12:12:32 51°28.018 3°5.427 330.6 3.1 301 14.9
2011-08-19 12:13:33 51°28.009 3°5.323 253 4.9 237 15
2011-08-19 12:14:32 51°27.951 3°5.203 240.2 6.2 233 14.9
2011-08-19 12:15:33 51°27.901 3°5.053 261.1 6.3 250 14.1
2011-08-19 12:16:33 51°27.864 3°4.891 258.8 6.6 249 14.5
2011-08-19 12:17:32 51°27.823 3°4.729 257.8 6.7 248 13.7
2011-08-19 12:18:32 51°27.784 3°4.563 259.9 6.7 250 15
2011-08-19 12:19:32 51°27.747 3°4.395 262.4 6.7 252 15.4
2011-08-19 12:20:32 51°27.715 3°4.233 262.3 6 251 15.8
2011-08-19 12:21:32 51°27.679 3°4.088 257.7 5.8 247 16
2011-08-19 12:22:32 51°27.64 3°3.949 258.6 5.6 247 16.3
2011-08-19 12:23:32 51°27.604 3°3.809 259.9 5.6 247 17
2011-08-19 12:24:32 51°27.569 3°3.672 261 5.6 248 16.9
2011-08-19 12:25:33 51°27.533 3°3.532 262.2 5.5 248 16.9
2011-08-19 12:26:32 51°27.504 3°3.396 262.7 5.6 250 16.6
2011-08-19 12:27:32 51°27.47 3°3.256 259.9 5.7 248 15.8
2011-08-19 12:28:32 51°27.432 3°3.119 257.5 5.7 246 14.3
2011-08-19 12:29:32 51°27.393 3°2.981 259.3 5.7 246 13.3
2011-08-19 12:30:32 51°27.375 3°2.854 298.9 3.8 279 13.3
2011-08-19 12:31:32 51°27.401 3°2.808 9.3 1.7 2 13.3
2011-08-19 12:32:32 51°27.41 3°2.86 78.3 3.3 96 13.7
2011-08-19 12:33:32 51°27.416 3°2.961 63.7 4.1 74 13.5
2011-08-19 12:34:32 51°27.438 3°3.074 63.2 4.6 74 14.1
2011-08-19 12:35:32 51°27.458 3°3.195 67.2 4.8 76 15.5
2011-08-19 12:36:32 51°27.474 3°3.321 68.3 4.9 79 16.1
2011-08-19 12:37:32 51°27.492 3°3.448 68 5 77 16.7
2011-08-19 12:38:32 51°27.51 3°3.578 66.4 5 75 16.7
2011-08-19 12:39:32 51°27.533 3°3.705 64.1 5 74 16.6
2011-08-19 12:40:32 51°27.557 3°3.831 64.6 5 73 16.2
2011-08-19 12:41:33 51°27.579 3°3.96 66.2 4.9 76 15.9
2011-08-19 12:42:32 51°27.6 3°4.087 66.9 5 76 15.9
2011-08-19 12:43:33 51°27.625 3°4.214 62.7 4.9 71 15.6
2011-08-19 12:44:32 51°27.653 3°4.335 60.3 4.9 69 15.5
2011-08-19 12:45:33 51°27.685 3°4.455 58.3 4.9 66 14.9
2011-08-19 12:46:32 51°27.716 3°4.575 60.7 5 68 14.7
2011-08-19 12:47:32 51°27.774 3°4.677 17.1 6.4 5 14.6
2011-08-19 12:48:32 51°27.835 3°4.511 279.3 10.5 273 15.7
2011-08-19 12:49:33 51°27.865 3°4.188 288.6 12.5 283 17.2
2011-08-19 12:50:32 51°27.919 3°3.871 291.8 12.6 285 18.8
2011-08-19 12:51:32 51°27.965 3°3.543 287 12.7 281 20
2011-08-19 12:52:33 51°28.013 3°3.209 288.6 12.6 284 21.3
2011-08-19 12:53:32 51°28.058 3°2.884 288.9 12.6 283 22.4
2011-08-19 12:54:33 51°28.118 3°2.556 292.6 12.6 286 23.4
2011-08-19 12:55:32 51°28.167 3°2.235 286.8 12.6 283 23.9
2011-08-19 12:56:32 51°28.217 3°1.914 288.9 12.5 285 23.9
2011-08-19 12:57:32 51°28.265 3°1.589 287.6 12.6 282 23.5
2011-08-19 12:58:32 51°28.323 3°1.266 291 12.6 285 22
2011-08-19 12:59:32 51°28.377 3°0.944 288.5 12.5 283 21.8
2011-08-19 13:00:32 51°28.422 3°0.616 288.5 12.6 283 21.5
2011-08-19 13:01:32 51°28.473 3°0.291 289.5 12.5 283 21.1
2011-08-19 13:02:32 51°28.521 2°59.963 288 12.6 283 23.4
2011-08-19 13:03:32 51°28.576 2°59.637 290.7 12.8 286 26.2
2011-08-19 13:04:32 51°28.632 2°59.308 288.9 12.8 284 28.5
2011-08-19 13:05:32 51°28.682 2°58.978 289.6 12.7 286 31.2
2011-08-19 13:06:32 51°28.742 2°58.651 292 12.8 287 31.6
2011-08-19 13:07:33 51°28.793 2°58.314 286.3 12.8 280 30
2011-08-19 13:08:32 51°28.847 2°57.992 291.5 12.8 285 29.5
2011-08-19 13:09:32 51°28.896 2°57.66 287.2 12.9 283 28.5
2011-08-19 13:10:33 51°28.935 2°57.4 292.3 7.4 286 27.2
2011-08-19 13:11:32 51°28.941 2°57.259 277.6 4.7 265 27
2011-08-19 13:12:32 51°28.947 2°57.146 284.8 3.9 276 26.9
2011-08-19 13:13:32 51°28.961 2°57.056 307.9 3.2 296 26.3
2011-08-19 13:14:33 51°28.998 2°56.998 337.9 3.1 329 24.6
2011-08-19 13:15:33 51°29.048 2°56.977 2.9 3.3 357 24
2011-08-19 13:16:33 51°29.103 2°57.003 31.3 3.6 32 24.7
2011-08-19 13:17:33 51°29.146 2°57.069 46 3.7 51 25.1
2011-08-19 13:18:32 51°29.184 2°57.144 44.6 3.6 48 25.6
2011-08-19 13:19:33 51°29.226 2°57.208 40.1 3.4 41 25.5
2011-08-19 13:20:32 51°29.266 2°57.272 46.9 3.5 50 26
2011-08-19 13:21:32 51°29.303 2°57.346 50.6 3.5 53 24.6
2011-08-19 13:22:32 51°29.334 2°57.424 53.5 3.5 58 25.1
2011-08-19 13:23:33 51°29.363 2°57.507 56.7 3.6 61 24.6
2011-08-19 13:24:32 51°29.391 2°57.593 59.8 3.7 66 26
2011-08-19 13:25:32 51°29.413 2°57.682 62.1 3.7 68 25.6
2011-08-19 13:26:32 51°29.435 2°57.775 65.2 3.7 72 25.8
2011-08-19 13:27:32 51°29.458 2°57.871 64 3.7 69 25.7
2011-08-19 13:28:32 51°29.484 2°57.96 58.9 3.6 61 26.4
2011-08-19 13:29:32 51°29.514 2°58.044 54.8 3.5 59 26.6
2011-08-19 13:30:32 51°29.547 2°58.119 51.1 3.6 55 26
2011-08-19 13:31:32 51°29.581 2°58.203 56.8 3.7 61 26.4
2011-08-19 13:32:32 51°29.615 2°58.286 50.5 3.6 51 26.6
2011-08-19 13:33:32 51°29.65 2°58.367 54.4 3.8 57 24
2011-08-19 13:34:32 51°29.681 2°58.455 58.8 3.8 62 27
2011-08-19 13:35:32 51°29.712 2°58.543 56.7 3.7 59 26.3
2011-08-19 13:36:32 51°29.746 2°58.629 55 3.9 57 26.2
2011-08-19 13:37:32 51°29.779 2°58.719 59.2 4 61 27.5
2011-08-19 13:38:32 51°29.809 2°58.813 62.7 3.9 66 26.4
2011-08-19 13:39:32 51°29.836 2°58.908 59.9 3.8 61 27.3
2011-08-19 13:40:32 51°29.869 2°58.996 56 3.9 58 27.2
2011-08-19 13:41:32 51°29.905 2°59.081 52.2 3.8 54 26.7
2011-08-19 13:42:32 51°29.945 2°59.161 48.4 3.8 50 26.7
2011-08-19 13:43:32 51°29.988 2°59.235 43.2 3.8 44 27.8
2011-08-19 13:44:32 51°30.036 2°59.301 37.6 3.8 38 27.9
2011-08-19 13:45:32 51°30.086 2°59.362 37.6 3.8 39 26.7
2011-08-19 13:46:32 51°30.132 2°59.433 48.5 3.9 51 28
2011-08-19 13:47:32 51°30.168 2°59.52 59.4 3.8 62 27.5
2011-08-19 13:48:33 51°30.192 2°59.619 70.3 4 74 27.8
2011-08-19 13:49:32 51°30.202 2°59.724 83 4.1 87 28.5
2011-08-19 13:50:32 51°30.199 2°59.832 95.6 4.1 100 27.8
2011-08-19 13:51:32 51°30.179 2°59.938 110.4 4.2 113 27.8
2011-08-19 13:52:32 51°30.143 3°0.034 126.4 4.2 128 27
2011-08-19 13:53:32 51°30.092 3°0.107 144.9 4.1 149 27.9
2011-08-19 13:54:32 51°30.028 3°0.145 172.6 4.2 171 28.6
2011-08-19 13:55:32 51°29.962 3°0.142 194.3 3.2 188 28.9
2011-08-19 13:56:32 51°29.92 3°0.13 203.2 2.1 189 28.9
2011-08-19 13:57:32 51°29.893 3°0.123 205.9 1.5 186 28.8
2011-08-19 13:58:32 51°29.858 3°0.105 213.3 2.8 204 28.6
2011-08-19 13:59:32 51°29.813 3°0.059 225.1 3.5 219 29
2011-08-19 14:00:32 51°29.772 2°59.991 237.3 3.7 232 29.2
2011-08-19 14:01:32 51°29.737 2°59.909 244.2 3.8 238 29.1
2011-08-19 14:02:32 51°29.704 2°59.82 243.4 3.9 239 29.3
2011-08-19 14:03:32 51°29.669 2°59.733 240.3 4 237 29.8
2011-08-19 14:04:32 51°29.632 2°59.646 238.9 4 235 29.8
2011-08-19 14:05:32 51°29.592 2°59.561 236.7 4 232 30
2011-08-19 14:06:32 51°29.553 2°59.478 238 3.9 233 29.5
2011-08-19 14:07:32 51°29.516 2°59.395 239.3 3.8 235 30
2011-08-19 14:08:32 51°29.483 2°59.308 242.7 3.9 240 30
2011-08-19 14:09:32 51°29.449 2°59.221 241.3 4 238 30.2
2011-08-19 14:10:32 51°29.411 2°59.129 238.4 4.2 235 30.1
2011-08-19 14:11:32 51°29.37 2°59.04 236.9 4.2 233 29.9
2011-08-19 14:12:32 51°29.329 2°58.951 237.4 4.1 234 29.9
2011-08-19 14:13:32 51°29.292 2°58.861 240.6 4.1 239 29.7
2011-08-19 14:14:32 51°29.257 2°58.767 242 4.1 240 29.6
2011-08-19 14:15:32 51°29.224 2°58.673 240.5 4.1 239 29.6
2011-08-19 14:16:32 51°29.186 2°58.583 237.1 4.1 235 29.1
2011-08-19 14:17:32 51°29.147 2°58.496 237.1 4 236 29.2
2011-08-19 14:18:32 51°29.11 2°58.408 239.7 4 240 29.7
2011-08-19 14:19:32 51°29.078 2°58.316 241.8 3.9 242 29.2
2011-08-19 14:20:32 51°29.045 2°58.226 239 4 237 29.8
2011-08-19 14:21:32 51°29.01 2°58.137 240 3.9 240 29.9
2011-08-19 14:22:32 51°28.926 2°58.026 206.9 9.9 200 29.9
2011-08-19 14:23:32 51°28.741 2°57.96 193 11.8 190 31.3
2011-08-19 14:24:32 51°28.548 2°57.886 195.6 11.9 194 31.8
2011-08-19 14:25:32 51°28.356 2°57.805 196.9 11.9 195 31.7
2011-08-19 14:26:32 51°28.165 2°57.72 198.4 12 197 31.7
2011-08-19 14:27:32 51°27.976 2°57.632 198.6 11.9 196 32
2011-08-19 14:28:32 51°27.788 2°57.535 200.2 11.9 199 30.5
2011-08-19 14:29:32 51°27.601 2°57.438 199.1 11.9 198 29.4
2011-08-19 14:30:32 51°27.411 2°57.348 201.1 12 200 28.3
2011-08-19 14:31:32 51°27.225 2°57.248 199.3 11.8 198 26.7
2011-08-19 14:32:32 51°27.035 2°57.155 200.3 11.9 198 24.9
2011-08-19 14:33:32 51°26.844 2°57.072 196.1 11.9 195 22.3
2011-08-19 14:34:32 51°26.654 2°56.988 199.2 12 196 19.6
2011-08-19 14:35:32 51°26.465 2°56.891 201.6 12 198 18.8
2011-08-19 14:36:32 51°26.272 2°56.813 197.1 12 192 19.5
2011-08-19 14:37:32 51°26.081 2°56.725 201.4 11.9 197 20.1
2011-08-19 14:38:32 51°25.888 2°56.648 192.8 12.2 187 19.4
2011-08-19 14:39:32 51°25.689 2°56.598 193.2 12.1 187 17.5
2011-08-19 14:40:32 51°25.492 2°56.542 194.3 11.9 190 22.3
2011-08-19 14:41:32 51°25.295 2°56.497 191.1 11.9 185 25.7
2011-08-19 14:42:32 51°25.098 2°56.462 193.7 11.9 189 26.9
2011-08-19 14:43:32 51°24.903 2°56.409 194.4 11.9 189 27
2011-08-19 14:44:32 51°24.71 2°56.365 194.8 11.5 191 25.6
2011-08-19 14:45:32 51°24.523 2°56.325 190.1 11.4 184 24.8
2011-08-19 14:46:32 51°24.336 2°56.29 192.4 11.4 183 23.6
2011-08-19 14:47:32 51°24.145 2°56.31 173.5 11.9 168 21
2011-08-19 14:48:32 51°23.951 2°56.329 190.2 11.3 187 18.8
2011-08-19 14:49:32 51°23.763 2°56.276 199.7 11.3 196 18.7
2011-08-19 14:50:32 51°23.585 2°56.176 204.6 11.4 201 21.2
2011-08-19 14:51:32 51°23.41 2°56.066 204.5 11.4 201 21.4
2011-08-19 14:52:32 51°23.231 2°55.955 204.9 11.7 201 22.1
2011-08-19 14:53:32 51°23.047 2°55.858 201.2 11.6 196 21.5
2011-08-19 14:54:33 51°22.86 2°55.766 202.1 11.6 197 21.2
2011-08-19 14:55:32 51°22.677 2°55.689 198.9 11.7 195 20.9
2011-08-19 14:56:32 51°22.495 2°55.6 201.9 11.4 197 20.7
2011-08-19 14:57:32 51°22.314 2°55.506 200.3 11.4 196 21.6
2011-08-19 14:58:32 51°22.131 2°55.416 200.5 11.4 195 20.7
2011-08-19 14:59:32 51°21.949 2°55.33 201.8 11.3 198 20.3
2011-08-19 15:00:33 51°21.769 2°55.231 201.7 11.3 199 20.3
2011-08-19 15:01:32 51°21.594 2°55.14 201.7 11.3 198 20
2011-08-19 15:02:32 51°21.413 2°55.054 199.8 11.2 196 19.8
2011-08-19 15:03:32 51°21.233 2°54.972 200.7 11.2 199 19.6
2011-08-19 15:04:32 51°21.054 2°54.887 198.8 11.2 196 19.5
2011-08-19 15:05:32 51°20.874 2°54.803 200.6 11.2 196 19.3
2011-08-19 15:06:32 51°20.693 2°54.731 199 11.2 197 18.7
2011-08-19 15:07:33 51°20.507 2°54.653 198.9 11.4 193 18.1
2011-08-19 15:08:32 51°20.322 2°54.599 193.9 11.5 189 17.3
2011-08-19 15:09:33 51°20.132 2°54.54 197.4 11.5 193 16.9
2011-08-19 15:10:32 51°19.951 2°54.471 197.9 11.3 191 16.4
2011-08-19 15:11:32 51°19.767 2°54.405 197.4 11.4 194 15.6
2011-08-19 15:12:32 51°19.581 2°54.343 193.1 11.5 190 15.4
2011-08-19 15:13:32 51°19.394 2°54.285 196.8 11.4 194 15
2011-08-19 15:14:32 51°19.208 2°54.219 194.5 11.4 187 14.7
2011-08-19 15:15:32 51°19.02 2°54.169 195.5 11.4 192 14.6
2011-08-19 15:16:32 51°18.835 2°54.107 196.9 11.6 194 14.3
2011-08-19 15:17:32 51°18.65 2°54.039 195.3 11.5 193 14.2
2011-08-19 15:18:32 51°18.466 2°53.979 193.5 11.3 191 13.9
2011-08-19 15:19:33 51°18.278 2°53.923 198 11.3 194 13.5
2011-08-19 15:20:32 51°18.098 2°53.855 194.1 11.3 191 13.2
2011-08-19 15:21:32 51°17.915 2°53.792 198.6 11.1 194 12.9
2011-08-19 15:22:33 51°17.73 2°53.727 193.9 11.2 191 12.6
2011-08-19 15:23:32 51°17.55 2°53.675 199 11.2 190 12.3
2011-08-19 15:24:32 51°17.369 2°53.606 198 11.1 194 12
2011-08-19 15:25:32 51°17.188 2°53.542 194.8 11.1 191 11.5
2011-08-19 15:26:32 51°17.003 2°53.508 190.6 11.3 186 11.1
2011-08-19 15:27:32 51°16.813 2°53.5 183.7 11.6 178 14.1
2011-08-19 15:28:33 51°16.619 2°53.499 184.6 11.5 178 14.5
2011-08-19 15:29:33 51°16.427 2°53.527 176.5 11.6 172 14.7
2011-08-19 15:30:32 51°16.236 2°53.583 177.2 11.8 171 14.5
2011-08-19 15:31:32 51°16.044 2°53.661 170.7 12 163 14.1
2011-08-19 15:32:32 51°15.853 2°53.759 169.8 12.1 165 13.8
2011-08-19 15:33:32 51°15.665 2°53.879 160.1 12.2 153 13.7
2011-08-19 15:34:32 51°15.483 2°54.026 159.3 12.4 152 13.2
2011-08-19 15:35:32 51°15.303 2°54.186 156.1 12.4 150 12.9
2011-08-19 15:36:32 51°15.125 2°54.342 153.8 12.2 150 14.6
2011-08-19 15:37:32 51°14.957 2°54.536 147.3 12.8 138 14.4
2011-08-19 15:38:32 51°14.801 2°54.761 145.9 12.7 137 14.4
2011-08-19 15:39:33 51°14.64 2°54.985 149.9 12.7 142 14.4
2011-08-19 15:40:33 51°14.46 2°55.134 154.5 12.3 155 13.5
2011-08-19 15:41:33 51°14.289 2°55.283 150.8 11.2 151 13.9
2011-08-19 15:42:32 51°14.136 2°55.408 153.3 9.3 154 13.9
2011-08-19 15:43:33 51°14.011 2°55.501 156.1 6.9 155 14.2
2011-08-19 15:44:33 51°13.917 2°55.574 155.5 6 155 14.5
2011-08-19 15:45:33 51°13.828 2°55.641 154.7 5.5 154 14.4
2011-08-19 15:46:33 51°13.756 2°55.713 140 4.8 139 14.4
2011-08-19 15:47:32 51°13.703 2°55.806 130 4.8 129 14.7
2011-08-19 15:48:33 51°13.66 2°55.9 122.4 3.8 121 13.5
2011-08-19 15:49:33 51°13.639 2°55.984 105 3 105 12.8
2011-08-19 15:50:32 51°13.636 2°56.015 113.7 0.2 76 10
2011-08-19 15:51:32 51°13.636 2°56.018 116.1 -999 36 10.1
2011-08-19 15:52:33 51°13.637 2°56.019 122.8 -999 5 4.8
2011-08-19 15:53:32 51°13.638 2°56.019 125 -999 183 10.1